createdAt,value
2022-11-29T00:00:58.688Z,41.28
2022-11-29T00:03:26.453Z,43.58
2022-11-29T00:05:53.999Z,20.77
2022-11-29T00:08:21.324Z,19.40
2022-11-29T00:10:48.628Z,25.67
2022-11-29T00:13:17.291Z,16.50
2022-11-29T00:15:44.459Z,26.85
2022-11-29T00:18:11.554Z,37.40
2022-11-29T00:20:39.535Z,30.25
2022-11-29T00:23:06.914Z,31.80
2022-11-29T00:25:34.155Z,39.55
2022-11-29T00:28:03.264Z,43.72
2022-11-29T00:30:30.667Z,49.08
2022-11-29T00:32:58.178Z,38.10
2022-11-29T00:35:25.315Z,48.97
2022-11-29T00:37:52.482Z,39.55
2022-11-29T00:40:19.642Z,41.30
2022-11-29T00:42:46.872Z,36.10
2022-11-29T00:45:15.971Z,37.60
2022-11-29T00:47:43.956Z,39.90
2022-11-29T00:50:11.572Z,42.65
2022-11-29T00:52:38.679Z,43.25
2022-11-29T00:55:06.216Z,47.78
2022-11-29T00:57:33.458Z,38.20
2022-11-29T01:00:00.806Z,45.33
2022-11-29T01:02:28.080Z,45.92
2022-11-29T01:04:55.360Z,48.00
2022-11-29T01:07:22.445Z,47.40
2022-11-29T01:09:49.709Z,51.83
2022-11-29T01:12:16.887Z,48.08
2022-11-29T01:14:44.264Z,43.17
2022-11-29T01:17:11.474Z,47.63
2022-11-29T01:19:39.198Z,38.30
2022-11-29T01:22:06.345Z,40.80
2022-11-29T01:24:33.540Z,41.63
2022-11-29T01:27:00.545Z,41.25
2022-11-29T01:29:27.698Z,43.50
2022-11-29T01:31:54.804Z,41.42
2022-11-29T01:34:21.958Z,56.63
2022-11-29T01:36:49.141Z,54.13
2022-11-29T01:39:16.327Z,51.90
2022-11-29T01:41:43.485Z,50.00
2022-11-29T01:44:13.703Z,59.55
2022-11-29T01:46:42.506Z,49.33
2022-11-29T01:49:29.829Z,43.78
2022-11-29T01:52:08.356Z,51.30
2022-11-29T01:54:37.321Z,43.92
2022-11-29T01:57:05.986Z,37.25
2022-11-29T01:59:33.654Z,38.83
2022-11-29T02:02:04.828Z,41.17
2022-11-29T02:04:33.038Z,32.72
2022-11-29T02:07:00.284Z,33.88
2022-11-29T02:09:27.403Z,39.80
2022-11-29T02:11:57.685Z,30.75
2022-11-29T02:14:34.266Z,30.95
2022-11-29T02:17:04.499Z,28.50
2022-11-29T02:19:55.014Z,35.42
2022-11-29T02:22:26.760Z,27.05
2022-11-29T02:25:09.021Z,30.67
2022-11-29T02:27:54.750Z,30.27
2022-11-29T02:30:21.756Z,35.67
2022-11-29T02:33:07.392Z,28.20
2022-11-29T02:35:37.415Z,24.52
2022-11-29T02:38:04.481Z,28.27
2022-11-29T02:40:34.660Z,22.08
2022-11-29T02:43:09.591Z,21.55
2022-11-29T02:45:36.746Z,26.58
2022-11-29T02:48:28.991Z,24.77
2022-11-29T02:51:04.746Z,16.02
2022-11-29T02:55:58.874Z,16.65
2022-11-29T02:58:25.904Z,16.90
2022-11-29T03:00:59.020Z,16.02
2022-11-29T03:03:36.952Z,17.13
2022-11-29T03:06:07.286Z,15.20
2022-11-29T03:08:41.205Z,15.63
2022-11-29T03:11:27.188Z,19.35
2022-11-29T03:14:02.048Z,17.90
2022-11-29T03:16:39.709Z,21.13
2022-11-29T03:19:09.775Z,20.75
2022-11-29T03:21:55.234Z,23.23
2022-11-29T03:24:42.740Z,21.65
2022-11-29T03:27:12.830Z,25.25
2022-11-29T03:29:48.819Z,19.90
2022-11-29T03:32:30.717Z,22.50
2022-11-29T03:35:12.861Z,22.98
2022-11-29T03:37:50.649Z,24.05
2022-11-29T03:40:20.413Z,26.13
2022-11-29T03:42:57.028Z,21.35
2022-11-29T03:45:26.212Z,25.90
2022-11-29T03:48:08.446Z,20.65
2022-11-29T03:50:38.349Z,27.92
2022-11-29T03:53:14.694Z,28.13
2022-11-29T03:55:55.478Z,26.67
2022-11-29T03:58:22.658Z,20.90
2022-11-29T04:00:49.801Z,21.38
2022-11-29T04:03:19.704Z,22.42
2022-11-29T04:06:03.990Z,22.38
2022-11-29T04:08:48.632Z,24.17
2022-11-29T04:11:21.484Z,28.52
2022-11-29T04:14:03.663Z,24.02
2022-11-29T04:16:32.059Z,26.73
2022-11-29T04:19:05.246Z,21.70
2022-11-29T04:21:55.393Z,29.75
2022-11-29T04:24:31.718Z,23.60
2022-11-29T04:27:04.959Z,20.90
2022-11-29T04:29:43.673Z,21.33
2022-11-29T04:32:29.497Z,28.45
2022-11-29T04:35:09.611Z,28.95
2022-11-29T04:37:55.110Z,25.42
2022-11-29T04:40:25.425Z,26.02
2022-11-29T04:43:25.209Z,26.67
2022-11-29T04:45:52.397Z,28.75
2022-11-29T04:48:37.660Z,28.55
2022-11-29T04:51:12.709Z,26.47
2022-11-29T04:53:48.180Z,29.45
2022-11-29T04:56:24.449Z,25.35
2022-11-29T04:58:51.516Z,28.35
2022-11-29T05:01:21.684Z,26.42
2022-11-29T05:03:53.836Z,28.30
2022-11-29T05:06:27.902Z,28.40
2022-11-29T05:09:15.401Z,28.58
2022-11-29T05:12:00.173Z,30.58
2022-11-29T05:14:27.365Z,24.05
2022-11-29T05:17:01.191Z,27.35
2022-11-29T05:19:37.474Z,26.92
2022-11-29T05:22:08.074Z,25.33
2022-11-29T05:24:41.397Z,25.40
2022-11-29T05:27:11.656Z,27.40
2022-11-29T05:29:38.709Z,28.35
2022-11-29T05:32:19.583Z,28.95
2022-11-29T05:35:09.134Z,26.25
2022-11-29T05:37:43.956Z,28.13
2022-11-29T05:40:14.124Z,27.07
2022-11-29T05:42:51.054Z,29.45
2022-11-29T05:45:25.824Z,35.70
2022-11-29T05:47:52.905Z,31.42
2022-11-29T05:50:27.324Z,25.75
2022-11-29T05:53:16.766Z,30.02
2022-11-29T05:55:49.896Z,22.15
2022-11-29T05:58:37.300Z,19.05
2022-11-29T06:01:15.018Z,20.52
2022-11-29T06:03:51.448Z,24.73
2022-11-29T06:06:37.184Z,19.65
2022-11-29T06:09:31.260Z,24.10
2022-11-29T06:12:05.545Z,30.88
2022-11-29T06:14:57.354Z,34.40
2022-11-29T06:17:26.122Z,42.08
2022-11-29T06:19:59.789Z,41.42
2022-11-29T06:22:26.848Z,42.03
2022-11-29T06:25:17.009Z,34.65
2022-11-29T06:28:08.562Z,36.95
2022-11-29T06:30:54.692Z,34.88
2022-11-29T06:33:28.789Z,36.20
2022-11-29T06:36:12.432Z,33.90
2022-11-29T06:38:39.956Z,29.13
2022-11-29T06:41:07.159Z,40.67
2022-11-29T06:43:34.492Z,45.72
2022-11-29T06:46:10.279Z,41.20
2022-11-29T06:51:14.810Z,46.30
2022-11-29T06:53:53.905Z,52.47
2022-11-29T06:56:25.337Z,71.97
2022-11-29T06:59:00.393Z,75.82
2022-11-29T07:01:38.006Z,64.10
2022-11-29T07:04:18.677Z,54.63
2022-11-29T07:06:46.008Z,48.92
2022-11-29T07:09:18.582Z,57.22
2022-11-29T07:11:46.664Z,60.42
2022-11-29T07:14:14.431Z,55.85
2022-11-29T07:16:59.947Z,46.53
2022-11-29T07:19:36.411Z,42.70
2022-11-29T07:22:22.091Z,40.97
2022-11-29T07:24:52.313Z,23.58
2022-11-29T07:27:21.558Z,40.35
2022-11-29T07:30:11.312Z,40.22
2022-11-29T07:33:00.528Z,44.50
2022-11-29T07:35:32.909Z,40.13
2022-11-29T07:38:11.981Z,45.47
2022-11-29T07:40:51.496Z,37.58
2022-11-29T07:43:25.040Z,27.00
2022-11-29T07:45:52.436Z,26.52
2022-11-29T07:48:19.680Z,32.15
2022-11-29T07:50:46.978Z,39.78
2022-11-29T07:53:17.947Z,28.45
2022-11-29T07:55:48.307Z,33.28
2022-11-29T07:58:16.784Z,35.80
2022-11-29T08:00:44.417Z,34.15
2022-11-29T08:03:12.028Z,34.85
2022-11-29T08:05:39.643Z,28.13
2022-11-29T08:08:07.381Z,28.40
2022-11-29T08:10:35.901Z,22.38
2022-11-29T08:13:03.307Z,23.40
2022-11-29T08:15:30.544Z,25.70
2022-11-29T08:17:57.763Z,27.92
2022-11-29T08:20:25.064Z,27.15
2022-11-29T08:22:56.026Z,22.10
2022-11-29T08:25:24.312Z,13.55
2022-11-29T08:27:52.005Z,18.58
2022-11-29T08:30:22.475Z,13.85
2022-11-29T08:32:51.689Z,18.92
2022-11-29T08:35:20.427Z,8.90
2022-11-29T08:37:47.633Z,6.95
2022-11-29T08:40:15.006Z,4.53
2022-11-29T08:42:42.339Z,6.05
2022-11-29T08:45:09.929Z,8.25
2022-11-29T08:47:37.839Z,8.50
2022-11-29T08:50:08.207Z,7.25
2022-11-29T08:52:54.983Z,8.20
2022-11-29T08:55:23.221Z,6.35
2022-11-29T08:57:51.189Z,6.10
2022-11-29T09:00:19.257Z,8.43
2022-11-29T09:02:46.427Z,9.80
2022-11-29T09:05:13.824Z,39.05
2022-11-29T09:07:41.131Z,13.77
2022-11-29T09:10:09.576Z,18.27
2022-11-29T09:12:37.328Z,11.95
2022-11-29T09:15:05.749Z,7.72
2022-11-29T09:17:33.052Z,16.23
2022-11-29T09:20:00.368Z,4.50
2022-11-29T09:22:27.624Z,8.00
2022-11-29T09:24:54.821Z,5.90
2022-11-29T09:27:22.076Z,7.03
2022-11-29T09:29:49.273Z,5.80
2022-11-29T09:32:16.845Z,7.43
2022-11-29T09:34:44.415Z,8.57
2022-11-29T09:37:11.882Z,5.28
2022-11-29T09:39:40.523Z,7.10
2022-11-29T09:42:18.830Z,6.03
2022-11-29T09:45:02.014Z,11.50
2022-11-29T09:47:45.670Z,8.25
2022-11-29T09:50:19.104Z,7.03
2022-11-29T09:52:50.443Z,6.20
2022-11-29T09:55:38.639Z,6.60
2022-11-29T09:58:08.107Z,7.80
2022-11-29T10:00:38.666Z,4.72
2022-11-29T10:03:21.066Z,5.68
2022-11-29T10:05:50.652Z,5.22
2022-11-29T10:08:29.866Z,12.15
2022-11-29T10:10:59.172Z,5.55
2022-11-29T10:13:33.014Z,5.45
2022-11-29T10:16:06.489Z,6.82
2022-11-29T10:18:38.843Z,7.07
2022-11-29T10:21:18.459Z,7.20
2022-11-29T10:23:51.080Z,7.72
2022-11-29T10:26:18.466Z,6.93
2022-11-29T10:28:47.788Z,7.90
2022-11-29T10:31:27.125Z,3.50
2022-11-29T10:33:55.331Z,6.05
2022-11-29T10:36:33.262Z,3.88
2022-11-29T10:39:07.682Z,6.22
2022-11-29T10:41:37.229Z,5.55
2022-11-29T10:44:04.505Z,3.40
2022-11-29T10:46:36.406Z,4.10
2022-11-29T10:49:05.811Z,7.60
2022-11-29T10:51:34.092Z,4.32
2022-11-29T10:54:19.919Z,7.43
2022-11-29T10:56:47.580Z,4.80
2022-11-29T10:59:26.312Z,5.70
2022-11-29T11:01:53.952Z,4.00
2022-11-29T11:04:33.865Z,4.07
2022-11-29T11:07:02.566Z,6.22
2022-11-29T11:09:29.745Z,6.05
2022-11-29T11:11:58.548Z,6.72
2022-11-29T11:14:37.855Z,8.38
2022-11-29T11:17:26.293Z,5.13
2022-11-29T11:20:02.373Z,4.57
2022-11-29T11:22:30.026Z,5.28
2022-11-29T11:25:01.537Z,5.93
2022-11-29T11:27:33.119Z,6.55
2022-11-29T11:30:01.608Z,6.65
2022-11-29T11:32:28.966Z,7.18
2022-11-29T11:34:59.185Z,5.88
2022-11-29T11:37:28.277Z,8.18
2022-11-29T11:39:57.731Z,9.45
2022-11-29T11:42:39.673Z,7.95
2022-11-29T11:45:09.681Z,7.00
2022-11-29T11:47:38.530Z,6.30
2022-11-29T11:50:12.966Z,6.82
2022-11-29T11:52:42.068Z,4.75
2022-11-29T11:55:21.295Z,6.93
2022-11-29T11:58:07.668Z,6.28
2022-11-29T12:01:03.870Z,8.10
2022-11-29T12:04:10.541Z,11.23
2022-11-29T12:06:37.811Z,9.30
2022-11-29T12:09:14.249Z,10.30
2022-11-29T12:11:49.322Z,10.95
2022-11-29T12:14:29.158Z,9.35
2022-11-29T12:17:02.667Z,16.10
2022-11-29T12:19:33.990Z,11.48
2022-11-29T12:22:03.565Z,7.35
2022-11-29T12:24:38.629Z,8.65
2022-11-29T12:27:06.458Z,11.00
2022-11-29T12:29:35.382Z,55.05
2022-11-29T12:32:21.264Z,85.82
2022-11-29T12:34:57.502Z,35.35
2022-11-29T12:37:36.775Z,23.75
2022-11-29T12:40:18.299Z,39.30
2022-11-29T12:42:59.627Z,37.33
2022-11-29T12:45:26.803Z,54.88
2022-11-29T12:48:19.832Z,59.15
2022-11-29T12:50:49.993Z,42.47
2022-11-29T12:53:25.494Z,47.13
2022-11-29T12:55:54.311Z,34.38
2022-11-29T12:58:21.441Z,35.20
2022-11-29T13:00:54.894Z,37.03
2022-11-29T13:03:31.256Z,37.28
2022-11-29T13:06:24.617Z,38.90
2022-11-29T13:08:51.663Z,31.98
2022-11-29T13:11:18.793Z,30.55
2022-11-29T13:13:47.748Z,36.08
2022-11-29T13:16:23.013Z,31.52
2022-11-29T13:19:09.715Z,41.53
2022-11-29T13:21:51.244Z,28.67
2022-11-29T13:24:27.322Z,34.80
2022-11-29T13:26:54.792Z,40.47
2022-11-29T13:29:22.243Z,39.35
2022-11-29T13:31:49.791Z,40.20
2022-11-29T13:34:27.759Z,35.08
2022-11-29T13:37:02.228Z,37.72
2022-11-29T13:39:48.023Z,33.10
2022-11-29T13:42:22.369Z,28.67
2022-11-29T13:44:55.716Z,24.63
2022-11-29T13:47:23.048Z,24.63
2022-11-29T13:50:03.881Z,27.15
2022-11-29T13:52:40.146Z,29.95
2022-11-29T13:55:14.392Z,27.35
2022-11-29T13:58:14.972Z,28.40
2022-11-29T14:00:49.107Z,23.60
2022-11-29T14:03:19.588Z,20.50
2022-11-29T14:06:10.455Z,25.25
2022-11-29T14:11:29.391Z,30.73
2022-11-29T14:14:05.850Z,20.88
2022-11-29T14:16:42.227Z,27.15
2022-11-29T14:19:09.299Z,26.52
2022-11-29T14:21:55.146Z,25.70
2022-11-29T14:24:42.524Z,30.67
2022-11-29T14:27:10.398Z,30.60
2022-11-29T14:29:49.825Z,30.45
2022-11-29T14:32:31.285Z,37.30
2022-11-29T14:35:04.501Z,34.55
2022-11-29T14:37:37.649Z,42.67
2022-11-29T14:40:13.794Z,39.28
2022-11-29T14:42:46.443Z,42.10
2022-11-29T14:45:27.624Z,42.40
2022-11-29T14:47:55.469Z,28.27
2022-11-29T14:50:33.423Z,39.08
2022-11-29T14:53:01.263Z,42.70
2022-11-29T14:55:30.233Z,37.95
2022-11-29T14:58:11.991Z,41.53
2022-11-29T15:00:48.227Z,43.78
2022-11-29T15:03:21.930Z,56.50
2022-11-29T15:05:58.319Z,60.65
2022-11-29T15:08:35.320Z,75.40
2022-11-29T15:11:04.545Z,44.22
2022-11-29T15:13:35.001Z,51.35
2022-11-29T15:16:20.787Z,39.15
2022-11-29T15:19:00.877Z,46.45
2022-11-29T15:21:37.209Z,40.67
2022-11-29T15:24:26.749Z,34.88
2022-11-29T15:27:00.088Z,18.98
2022-11-29T15:29:28.197Z,25.30
2022-11-29T15:31:56.808Z,18.45
2022-11-29T15:34:27.172Z,11.05
2022-11-29T15:36:54.410Z,25.70
2022-11-29T15:39:25.796Z,11.60
2022-11-29T15:41:52.932Z,9.93
2022-11-29T15:44:22.429Z,10.57
2022-11-29T15:46:49.549Z,10.60
2022-11-29T15:49:17.012Z,13.63
2022-11-29T15:51:45.869Z,11.40
2022-11-29T15:54:18.950Z,13.32
2022-11-29T15:56:49.186Z,12.93
2022-11-29T15:59:19.378Z,9.50
2022-11-29T16:01:47.149Z,14.40
2022-11-29T16:04:19.454Z,29.58
2022-11-29T16:06:47.604Z,41.55
2022-11-29T16:09:37.206Z,59.15
2022-11-29T16:12:04.606Z,58.28
2022-11-29T16:14:31.766Z,61.17
2022-11-29T16:17:01.034Z,50.05
2022-11-29T16:19:33.187Z,74.78
2022-11-29T16:22:01.862Z,89.18
2022-11-29T16:24:29.191Z,83.57
2022-11-29T16:26:56.410Z,94.38
2022-11-29T16:29:45.380Z,95.30
2022-11-29T16:32:14.116Z,86.80
2022-11-29T16:34:42.460Z,98.47
2022-11-29T16:37:21.515Z,99.50
2022-11-29T16:39:50.361Z,110.22
2022-11-29T16:42:24.887Z,116.82
2022-11-29T16:44:54.765Z,129.60
2022-11-29T16:47:22.982Z,92.97
2022-11-29T16:50:02.327Z,100.22
2022-11-29T16:52:30.541Z,93.15
2022-11-29T16:54:57.825Z,97.43
2022-11-29T16:57:25.542Z,110.30
2022-11-29T16:59:52.695Z,108.30
2022-11-29T17:02:20.380Z,98.57
2022-11-29T17:04:47.886Z,109.22
2022-11-29T17:07:18.309Z,101.78
2022-11-29T17:09:46.079Z,102.45
2022-11-29T17:12:13.931Z,98.63
2022-11-29T17:14:41.094Z,96.18
2022-11-29T17:17:08.351Z,93.70
2022-11-29T17:19:35.642Z,95.75
2022-11-29T17:22:03.697Z,96.88
2022-11-29T17:24:30.918Z,94.40
2022-11-29T17:26:58.129Z,90.93
2022-11-29T17:29:25.429Z,99.07
2022-11-29T17:31:53.636Z,96.95
2022-11-29T17:34:20.854Z,89.90
2022-11-29T17:36:48.203Z,90.50
2022-11-29T17:39:15.973Z,143.48
2022-11-29T17:41:43.148Z,92.15
2022-11-29T17:44:10.555Z,81.50
2022-11-29T17:46:38.863Z,76.60
2022-11-29T17:49:07.158Z,85.22
2022-11-29T17:51:52.142Z,87.20
2022-11-29T17:54:21.176Z,85.32
2022-11-29T17:56:48.484Z,97.82
2022-11-29T17:59:15.654Z,108.55
2022-11-29T18:01:42.970Z,119.32
2022-11-29T18:04:10.281Z,139.68
2022-11-29T18:06:38.681Z,135.05
2022-11-29T18:09:06.976Z,100.25
2022-11-29T18:11:45.001Z,127.72
2022-11-29T18:14:15.669Z,120.63
2022-11-29T18:16:44.019Z,117.28
2022-11-29T18:19:12.546Z,122.35
2022-11-29T18:21:41.366Z,109.82
2022-11-29T18:24:09.033Z,114.45
2022-11-29T18:26:36.907Z,142.55
2022-11-29T18:29:04.723Z,139.05
2022-11-29T18:31:33.238Z,121.18
2022-11-29T18:34:01.776Z,129.05
2022-11-29T18:36:30.528Z,131.55
2022-11-29T18:38:58.943Z,115.70
2022-11-29T18:41:26.773Z,140.60
2022-11-29T18:44:01.469Z,128.38
2022-11-29T18:46:36.788Z,116.95
2022-11-29T18:49:05.019Z,145.15
2022-11-29T18:51:32.474Z,109.93
2022-11-29T18:53:59.931Z,58.17
2022-11-29T18:56:28.688Z,64.32
2022-11-29T18:58:58.682Z,86.15
2022-11-29T19:01:27.062Z,84.72
2022-11-29T19:03:55.387Z,85.53
2022-11-29T19:06:23.947Z,82.40
2022-11-29T19:08:52.010Z,93.68
2022-11-29T19:11:20.172Z,96.55
2022-11-29T19:13:48.081Z,115.80
2022-11-29T19:16:17.585Z,106.00
2022-11-29T19:18:45.710Z,101.18
2022-11-29T19:21:20.003Z,138.35
2022-11-29T19:23:52.447Z,135.15
2022-11-29T19:26:20.193Z,141.20
2022-11-29T19:28:47.536Z,143.80
2022-11-29T19:31:15.831Z,156.98
2022-11-29T19:33:45.063Z,143.65
2022-11-29T19:36:16.047Z,146.43
2022-11-29T19:38:45.701Z,145.65
2022-11-29T19:41:18.505Z,132.38
2022-11-29T19:43:46.723Z,137.52
2022-11-29T19:46:14.949Z,158.82
2022-11-29T19:48:42.339Z,173.07
2022-11-29T19:51:10.841Z,155.07
2022-11-29T19:53:38.442Z,157.50
2022-11-29T19:56:10.912Z,129.50
2022-11-29T19:58:38.161Z,128.77
2022-11-29T20:01:09.256Z,149.70
2022-11-29T20:03:36.848Z,153.93
2022-11-29T20:06:04.079Z,140.95
2022-11-29T20:08:31.721Z,152.13
2022-11-29T20:11:18.359Z,147.98
2022-11-29T20:13:47.224Z,148.30
2022-11-29T20:16:16.058Z,158.48
2022-11-29T20:18:48.927Z,142.13
2022-11-29T20:21:23.580Z,130.65
2022-11-29T20:23:54.764Z,123.53
2022-11-29T20:26:21.957Z,107.28
2022-11-29T20:28:49.032Z,164.60
2022-11-29T20:31:21.604Z,116.85
2022-11-29T20:33:49.367Z,87.13
2022-11-29T20:36:26.552Z,107.20
2022-11-29T20:39:12.883Z,118.15
2022-11-29T20:41:49.885Z,131.55
2022-11-29T20:44:21.330Z,119.95
2022-11-29T20:46:48.568Z,136.98
2022-11-29T20:49:17.502Z,131.63
2022-11-29T20:52:05.706Z,116.55
2022-11-29T20:54:32.843Z,123.90
2022-11-29T20:57:00.065Z,123.80
2022-11-29T20:59:27.132Z,126.20
2022-11-29T21:01:54.709Z,110.20
2022-11-29T21:04:23.551Z,120.10
2022-11-29T21:06:51.161Z,113.40
2022-11-29T21:09:18.506Z,119.05
2022-11-29T21:11:45.970Z,107.65
2022-11-29T21:14:13.422Z,128.82
2022-11-29T21:16:41.152Z,106.47
2022-11-29T21:19:11.075Z,124.40
2022-11-29T21:21:42.304Z,114.43
2022-11-29T21:24:25.593Z,124.93
2022-11-29T21:26:52.938Z,135.18
2022-11-29T21:29:21.204Z,146.85
2022-11-29T21:31:49.996Z,146.65
2022-11-29T21:34:17.146Z,150.80
2022-11-29T21:36:44.781Z,152.57
2022-11-29T21:39:14.034Z,143.88
2022-11-29T21:41:41.141Z,143.80
2022-11-29T21:44:08.795Z,88.38
2022-11-29T21:46:36.348Z,100.57
2022-11-29T21:49:04.299Z,73.53
2022-11-29T21:51:31.315Z,116.18
2022-11-29T21:53:58.637Z,27.58
2022-11-29T21:56:25.717Z,30.92
2022-11-29T21:58:52.976Z,19.77
2022-11-29T22:01:20.384Z,13.20
2022-11-29T22:03:47.858Z,30.50
2022-11-29T22:06:19.035Z,23.77
2022-11-29T22:08:46.782Z,12.45
2022-11-29T22:11:15.723Z,9.45
2022-11-29T22:14:02.083Z,21.60
2022-11-29T22:16:29.950Z,6.88
2022-11-29T22:18:57.188Z,7.93
2022-11-29T22:21:24.358Z,4.47
2022-11-29T22:23:52.438Z,3.33
2022-11-29T22:26:19.545Z,5.53
2022-11-29T22:28:47.632Z,7.18
2022-11-29T22:31:14.809Z,3.95
2022-11-29T22:33:42.094Z,5.15
2022-11-29T22:36:10.822Z,4.25
2022-11-29T22:38:38.438Z,4.38
2022-11-29T22:41:12.545Z,4.68
2022-11-29T22:43:40.475Z,7.35
2022-11-29T22:46:08.849Z,5.35
2022-11-29T22:48:39.077Z,7.10
2022-11-29T22:51:17.010Z,5.00
2022-11-29T22:53:52.581Z,5.13
2022-11-29T22:58:47.041Z,9.48
2022-11-29T23:01:15.553Z,11.07
2022-11-29T23:03:43.862Z,9.13
2022-11-29T23:06:12.739Z,20.63
2022-11-29T23:08:40.389Z,22.05
2022-11-29T23:11:09.549Z,11.55
2022-11-29T23:13:38.050Z,16.77
2022-11-29T23:16:06.099Z,6.28
2022-11-29T23:18:34.243Z,6.00
2022-11-29T23:21:08.773Z,4.35
2022-11-29T23:23:36.004Z,5.55
2022-11-29T23:26:03.368Z,5.47
2022-11-29T23:28:30.574Z,4.25
2022-11-29T23:30:58.859Z,4.90
2022-11-29T23:33:26.543Z,4.55
2022-11-29T23:35:59.779Z,3.88
2022-11-29T23:38:26.964Z,4.15
2022-11-29T23:40:54.186Z,5.93
2022-11-29T23:43:22.216Z,4.55
2022-11-29T23:45:49.485Z,4.68
2022-11-29T23:48:16.820Z,4.82
2022-11-29T23:50:44.239Z,3.88
2022-11-29T23:53:15.052Z,3.20
2022-11-29T23:55:42.573Z,6.20
2022-11-29T23:58:10.453Z,4.55
